createdAt,value
2022-09-23T00:00:15.619Z,16.83
2022-09-23T00:03:17.025Z,17.08
2022-09-23T00:06:21.865Z,16.92
2022-09-23T00:09:23.260Z,17.23
2022-09-23T00:12:24.722Z,16.58
2022-09-23T00:15:26.354Z,17.02
2022-09-23T00:18:27.775Z,16.60
2022-09-23T00:21:29.334Z,16.70
2022-09-23T00:24:30.742Z,15.82
2022-09-23T00:27:32.294Z,17.20
2022-09-23T00:30:33.785Z,17.30
2022-09-23T00:33:35.337Z,17.48
2022-09-23T00:36:36.769Z,18.63
2022-09-23T00:39:38.206Z,17.00
2022-09-23T00:42:48.772Z,17.70
2022-09-23T00:45:51.167Z,16.95
2022-09-23T00:48:59.113Z,19.50
2022-09-23T00:52:10.859Z,18.50
2022-09-23T00:55:17.449Z,17.58
2022-09-23T00:58:25.708Z,17.55
2022-09-23T01:01:27.403Z,17.20
2022-09-23T01:04:30.073Z,17.90
2022-09-23T01:07:31.488Z,18.55
2022-09-23T01:11:10.573Z,18.85
2022-09-23T01:14:27.250Z,18.70
2022-09-23T01:17:40.414Z,18.58
2022-09-23T01:20:53.942Z,19.05
2022-09-23T01:24:23.183Z,19.58
2022-09-23T01:27:42.805Z,19.48
2022-09-23T01:31:09.413Z,18.17
2022-09-23T01:34:15.225Z,17.40
2022-09-23T01:37:46.773Z,17.67
2022-09-23T01:40:54.260Z,17.25
2022-09-23T01:44:07.978Z,17.50
2022-09-23T01:47:17.713Z,17.50
2022-09-23T01:50:41.279Z,17.20
2022-09-23T01:54:06.988Z,17.92
2022-09-23T01:57:18.459Z,18.13
2022-09-23T02:00:23.255Z,18.45
2022-09-23T02:03:37.007Z,17.52
2022-09-23T02:06:51.856Z,17.52
2022-09-23T02:10:15.420Z,18.02
2022-09-23T02:13:27.936Z,18.55
2022-09-23T02:16:46.553Z,18.73
2022-09-23T02:19:56.327Z,18.20
2022-09-23T02:23:22.826Z,19.42
2022-09-23T02:26:36.937Z,18.85
2022-09-23T02:29:58.754Z,19.02
2022-09-23T02:33:10.204Z,18.30
2022-09-23T02:36:32.322Z,19.95
2022-09-23T02:39:43.257Z,18.63
2022-09-23T02:42:59.282Z,19.23
2022-09-23T02:46:02.438Z,18.23
2022-09-23T02:49:14.965Z,18.70
2022-09-23T02:52:16.436Z,19.00
2022-09-23T02:55:20.652Z,18.20
2022-09-23T03:01:44.677Z,17.85
2022-09-23T03:05:09.131Z,17.27
2022-09-23T03:08:28.781Z,17.42
2022-09-23T03:11:30.343Z,17.02
2022-09-23T03:14:49.417Z,16.98
2022-09-23T03:18:06.134Z,17.52
2022-09-23T03:21:16.138Z,16.48
2022-09-23T03:24:19.875Z,16.90
2022-09-23T03:27:28.320Z,16.80
2022-09-23T03:30:32.512Z,16.88
2022-09-23T03:36:54.352Z,15.32
2022-09-23T03:40:07.210Z,16.27
2022-09-23T03:43:10.340Z,15.18
2022-09-23T03:46:13.105Z,15.93
2022-09-23T03:49:18.478Z,14.90
2022-09-23T03:52:22.345Z,14.95
2022-09-23T03:55:23.841Z,14.45
2022-09-23T03:58:25.268Z,14.38
2022-09-23T04:01:26.853Z,13.48
2022-09-23T04:04:29.047Z,13.48
2022-09-23T04:07:30.884Z,11.82
2022-09-23T04:10:32.372Z,12.52
2022-09-23T04:13:33.806Z,12.07
2022-09-23T04:16:35.299Z,11.48
2022-09-23T04:19:36.853Z,11.95
2022-09-23T04:22:38.251Z,11.98
2022-09-23T04:25:47.335Z,11.93
2022-09-23T04:28:48.735Z,12.43
2022-09-23T04:31:51.262Z,12.00
2022-09-23T04:34:52.725Z,11.88
2022-09-23T04:37:54.131Z,12.07
2022-09-23T04:40:55.555Z,12.65
2022-09-23T04:43:57.187Z,12.10
2022-09-23T04:46:58.646Z,11.95
2022-09-23T04:50:00.188Z,11.45
2022-09-23T04:53:01.678Z,11.93
2022-09-23T04:56:15.321Z,11.52
2022-09-23T04:59:16.797Z,11.70
2022-09-23T05:02:18.251Z,11.68
2022-09-23T05:05:19.792Z,11.65
2022-09-23T05:08:21.214Z,11.15
2022-09-23T05:11:24.192Z,11.88
2022-09-23T05:14:25.587Z,12.23
2022-09-23T05:17:27.045Z,10.77
2022-09-23T05:20:28.468Z,11.70
2022-09-23T05:23:30.295Z,11.63
2022-09-23T05:26:32.905Z,12.45
2022-09-23T05:29:34.605Z,12.02
2022-09-23T05:32:36.034Z,11.05
2022-09-23T05:35:37.508Z,11.30
2022-09-23T05:38:39.477Z,11.38
2022-09-23T05:41:40.969Z,11.18
2022-09-23T05:44:42.376Z,11.30
2022-09-23T05:47:43.860Z,11.10
2022-09-23T05:50:51.977Z,11.27
2022-09-23T05:53:55.512Z,11.05
2022-09-23T05:56:58.441Z,10.55
2022-09-23T06:00:02.144Z,10.38
2022-09-23T06:03:14.858Z,11.15
2022-09-23T06:06:17.932Z,10.52
2022-09-23T06:09:19.380Z,9.60
2022-09-23T06:12:20.776Z,10.05
2022-09-23T06:15:22.214Z,9.90
2022-09-23T06:18:23.626Z,9.88
2022-09-23T06:21:25.065Z,10.35
2022-09-23T06:24:30.985Z,10.15
2022-09-23T06:27:32.859Z,9.90
2022-09-23T06:30:34.292Z,10.07
2022-09-23T06:33:37.358Z,9.20
2022-09-23T06:36:43.727Z,9.70
2022-09-23T06:39:46.233Z,9.68
2022-09-23T06:42:52.058Z,9.50
2022-09-23T06:46:01.358Z,9.50
2022-09-23T06:49:02.786Z,9.85
2022-09-23T06:52:04.236Z,9.18
2022-09-23T06:55:06.675Z,9.25
2022-09-23T06:58:08.132Z,9.63
2022-09-23T07:01:12.964Z,9.10
2022-09-23T07:04:14.503Z,8.80
2022-09-23T07:07:15.950Z,8.60
2022-09-23T07:10:17.356Z,8.90
2022-09-23T07:13:18.851Z,9.30
2022-09-23T07:16:20.313Z,8.85
2022-09-23T07:19:21.796Z,8.32
2022-09-23T07:22:23.345Z,8.70
2022-09-23T07:25:24.797Z,8.38
2022-09-23T07:28:26.236Z,7.70
2022-09-23T07:31:38.252Z,8.02
2022-09-23T07:34:41.309Z,7.50
2022-09-23T07:37:42.767Z,7.35
2022-09-23T07:40:44.296Z,7.93
2022-09-23T07:43:46.450Z,8.38
2022-09-23T07:46:48.978Z,7.60
2022-09-23T07:49:50.427Z,8.32
2022-09-23T07:52:51.843Z,8.82
2022-09-23T07:55:56.634Z,8.00
2022-09-23T07:58:58.085Z,8.00
2022-09-23T08:01:59.609Z,8.32
2022-09-23T08:05:01.071Z,8.13
2022-09-23T08:08:02.759Z,7.85
2022-09-23T08:11:06.624Z,8.48
2022-09-23T08:14:09.446Z,8.25
2022-09-23T08:17:14.079Z,7.97
2022-09-23T08:20:15.558Z,8.32
2022-09-23T08:23:17.620Z,8.50
2022-09-23T08:26:22.148Z,7.82
2022-09-23T08:29:25.407Z,8.10
2022-09-23T08:32:26.822Z,8.05
2022-09-23T08:35:28.968Z,8.30
2022-09-23T08:38:30.403Z,8.10
2022-09-23T08:41:40.547Z,8.20
2022-09-23T08:44:58.467Z,7.82
2022-09-23T08:48:13.809Z,7.85
2022-09-23T08:51:22.463Z,7.90
2022-09-23T08:54:30.477Z,8.05
2022-09-23T08:57:42.638Z,8.48
2022-09-23T09:00:48.077Z,8.05
2022-09-23T09:03:53.918Z,8.25
2022-09-23T09:10:40.316Z,8.90
2022-09-23T09:14:07.241Z,8.82
2022-09-23T09:17:18.830Z,8.55
2022-09-23T09:20:29.298Z,8.02
2022-09-23T09:23:30.697Z,8.40
2022-09-23T09:26:33.838Z,8.20
2022-09-23T09:29:42.087Z,8.47
2022-09-23T09:33:15.414Z,8.38
2022-09-23T09:36:52.444Z,7.30
2022-09-23T09:39:53.957Z,7.43
2022-09-23T09:42:55.455Z,7.50
2022-09-23T09:46:55.004Z,7.60
2022-09-23T09:50:03.056Z,6.72
2022-09-23T09:53:22.533Z,6.90
2022-09-23T09:56:35.727Z,6.28
2022-09-23T09:59:37.313Z,6.90
2022-09-23T10:02:40.624Z,6.07
2022-09-23T10:05:45.036Z,6.65
2022-09-23T10:09:09.044Z,5.90
2022-09-23T10:12:21.724Z,6.00
2022-09-23T10:15:47.642Z,6.60
2022-09-23T10:18:51.161Z,6.40
2022-09-23T10:21:59.166Z,6.45
2022-09-23T10:25:07.646Z,6.30
2022-09-23T10:28:38.214Z,6.80
2022-09-23T10:31:39.673Z,6.40
2022-09-23T10:34:45.887Z,6.32
2022-09-23T10:37:55.203Z,6.40
2022-09-23T10:40:56.789Z,6.38
2022-09-23T10:43:58.221Z,6.00
2022-09-23T10:47:09.758Z,6.03
2022-09-23T10:50:20.194Z,6.40
2022-09-23T10:53:28.470Z,6.32
2022-09-23T10:56:41.357Z,5.97
2022-09-23T11:00:10.742Z,6.07
2022-09-23T11:03:30.988Z,6.28
2022-09-23T11:06:47.349Z,6.30
2022-09-23T11:10:35.229Z,6.90
2022-09-23T11:14:08.213Z,6.47
2022-09-23T11:17:27.995Z,6.20
2022-09-23T11:20:51.695Z,6.53
2022-09-23T11:23:56.291Z,6.65
2022-09-23T11:27:35.692Z,6.35
2022-09-23T11:30:49.565Z,6.63
2022-09-23T11:33:56.859Z,6.50
2022-09-23T11:37:11.201Z,6.35
2022-09-23T11:40:15.729Z,5.97
2022-09-23T11:43:24.867Z,6.57
2022-09-23T11:46:48.189Z,6.63
2022-09-23T11:49:53.475Z,6.43
2022-09-23T11:53:05.600Z,6.32
2022-09-23T11:56:33.900Z,6.80
2022-09-23T11:59:45.570Z,6.10
2022-09-23T12:03:13.650Z,6.30
2022-09-23T12:06:21.295Z,6.18
2022-09-23T12:09:54.100Z,6.63
2022-09-23T12:12:58.042Z,6.47
2022-09-23T12:16:44.144Z,6.13
2022-09-23T12:20:00.664Z,5.88
2022-09-23T12:23:13.900Z,6.40
2022-09-23T12:26:19.790Z,6.30
2022-09-23T12:29:24.482Z,6.43
2022-09-23T12:32:26.557Z,6.63
2022-09-23T12:35:38.289Z,5.85
2022-09-23T12:38:52.262Z,6.68
2022-09-23T12:45:32.890Z,6.32
2022-09-23T12:48:54.230Z,6.78
2022-09-23T12:52:24.817Z,6.03
2022-09-23T12:55:35.308Z,6.40
2022-09-23T12:58:42.549Z,7.00
2022-09-23T13:01:44.744Z,6.63
2022-09-23T13:04:56.875Z,6.00
2022-09-23T13:08:05.015Z,5.82
2022-09-23T13:11:21.771Z,5.78
2022-09-23T13:14:27.587Z,5.30
2022-09-23T13:17:33.254Z,5.68
2022-09-23T13:20:36.958Z,4.95
2022-09-23T13:23:38.398Z,4.80
2022-09-23T13:26:45.421Z,4.90
2022-09-23T13:30:15.846Z,4.60
2022-09-23T13:33:26.558Z,5.45
2022-09-23T13:36:28.211Z,5.60
2022-09-23T13:39:29.616Z,4.90
2022-09-23T13:42:31.201Z,5.68
2022-09-23T13:45:37.923Z,6.35
2022-09-23T13:48:40.885Z,6.38
2022-09-23T13:51:44.843Z,6.77
2022-09-23T13:54:49.889Z,6.93
2022-09-23T13:58:04.020Z,7.38
2022-09-23T14:04:23.759Z,6.32
2022-09-23T14:07:25.891Z,7.07
2022-09-23T14:10:27.701Z,7.20
2022-09-23T14:13:31.737Z,7.00
2022-09-23T14:16:37.786Z,7.68
2022-09-23T14:19:42.198Z,8.25
2022-09-23T14:22:43.942Z,7.32
2022-09-23T14:25:46.812Z,7.25
2022-09-23T14:28:48.453Z,7.40
2022-09-23T14:31:57.020Z,7.05
2022-09-23T14:35:01.617Z,6.90
2022-09-23T14:38:03.280Z,6.60
2022-09-23T14:41:04.728Z,6.82
2022-09-23T14:44:07.761Z,6.72
2022-09-23T14:47:14.284Z,7.63
2022-09-23T14:50:21.414Z,7.20
2022-09-23T14:53:22.803Z,7.60
2022-09-23T14:56:25.373Z,7.50
2022-09-23T14:59:32.599Z,7.32
2022-09-23T15:02:36.902Z,7.75
2022-09-23T15:05:42.721Z,7.43
2022-09-23T15:08:45.100Z,7.90
2022-09-23T15:11:47.256Z,7.72
2022-09-23T15:14:54.917Z,9.00
2022-09-23T15:18:03.742Z,9.07
2022-09-23T15:21:12.912Z,9.68
2022-09-23T15:24:46.997Z,9.75
2022-09-23T15:28:19.269Z,10.63
2022-09-23T15:31:23.111Z,11.15
2022-09-23T15:34:24.631Z,12.02
2022-09-23T15:37:26.126Z,13.85
2022-09-23T15:40:30.125Z,13.88
2022-09-23T15:46:33.042Z,15.82
2022-09-23T15:49:36.513Z,16.50
2022-09-23T15:52:37.963Z,16.95
2022-09-23T15:55:39.399Z,17.60
2022-09-23T15:58:40.903Z,16.92
2022-09-23T16:01:42.883Z,19.45
2022-09-23T16:04:44.486Z,19.25
2022-09-23T16:07:46.013Z,19.88
2022-09-23T16:10:47.444Z,20.48
2022-09-23T16:13:49.216Z,22.05
2022-09-23T16:16:50.691Z,22.70
2022-09-23T16:19:52.127Z,24.25
2022-09-23T16:22:55.798Z,25.38
2022-09-23T16:25:57.249Z,27.25
2022-09-23T16:28:59.336Z,30.10
2022-09-23T16:32:01.069Z,31.17
2022-09-23T16:35:02.634Z,30.08
2022-09-23T16:38:04.187Z,31.88
2022-09-23T16:41:05.648Z,33.60
2022-09-23T16:44:07.610Z,32.25
2022-09-23T16:47:09.104Z,31.45
2022-09-23T16:50:15.590Z,33.90
2022-09-23T16:53:17.003Z,32.30
2022-09-23T16:56:24.382Z,34.67
2022-09-23T16:59:29.528Z,31.90
2022-09-23T17:02:30.971Z,30.70
2022-09-23T17:05:32.514Z,30.63
2022-09-23T17:08:34.072Z,30.98
2022-09-23T17:11:35.548Z,29.25
2022-09-23T17:14:37.059Z,29.80
2022-09-23T17:17:38.815Z,33.40
2022-09-23T17:20:40.249Z,33.97
2022-09-23T17:23:41.698Z,32.75
2022-09-23T17:26:43.130Z,33.20
2022-09-23T17:29:44.605Z,34.42
2022-09-23T17:32:46.028Z,32.97
2022-09-23T17:35:47.519Z,34.67
2022-09-23T17:38:50.139Z,35.72
2022-09-23T17:41:51.556Z,36.15
2022-09-23T17:44:53.178Z,37.25
2022-09-23T17:47:54.598Z,35.95
2022-09-23T17:51:01.371Z,38.00
2022-09-23T17:54:02.797Z,36.53
2022-09-23T17:57:04.290Z,33.38
2022-09-23T18:00:06.276Z,33.70
2022-09-23T18:03:13.137Z,34.70
2022-09-23T18:06:17.286Z,35.30
2022-09-23T18:12:20.058Z,33.50
2022-09-23T18:15:21.561Z,32.90
2022-09-23T18:18:22.988Z,34.70
2022-09-23T18:21:27.323Z,35.78
2022-09-23T18:24:32.432Z,34.67
2022-09-23T18:27:34.740Z,36.15
2022-09-23T18:30:36.194Z,38.45
2022-09-23T18:33:38.141Z,35.53
2022-09-23T18:36:40.012Z,35.67
2022-09-23T18:39:41.425Z,39.00
2022-09-23T18:42:42.884Z,38.30
2022-09-23T18:45:54.499Z,37.83
2022-09-23T18:48:56.518Z,38.30
2022-09-23T18:51:58.315Z,50.15
2022-09-23T18:54:59.738Z,52.78
2022-09-23T18:58:01.476Z,39.83
2022-09-23T19:01:08.363Z,40.45
2022-09-23T19:04:10.286Z,35.67
2022-09-23T19:07:11.764Z,35.67
2022-09-23T19:10:13.195Z,34.72
2022-09-23T19:13:14.659Z,36.00
2022-09-23T19:16:16.935Z,36.13
2022-09-23T19:19:18.501Z,36.78
2022-09-23T19:22:19.900Z,34.53
2022-09-23T19:25:21.332Z,31.08
2022-09-23T19:28:22.814Z,28.92
2022-09-23T19:31:30.071Z,23.95
2022-09-23T19:34:31.768Z,21.45
2022-09-23T19:37:33.180Z,21.33
2022-09-23T19:40:34.668Z,22.10
2022-09-23T19:43:36.138Z,22.65
2022-09-23T19:46:40.052Z,23.13
2022-09-23T19:49:41.533Z,22.23
2022-09-23T19:52:42.962Z,22.60
2022-09-23T19:55:44.412Z,22.63
2022-09-23T19:58:47.852Z,23.10
2022-09-23T20:01:49.416Z,21.92
2022-09-23T20:04:50.921Z,22.15
2022-09-23T20:07:52.349Z,22.55
2022-09-23T20:10:54.767Z,22.15
2022-09-23T20:13:58.450Z,22.42
2022-09-23T20:16:59.895Z,23.77
2022-09-23T20:20:01.633Z,23.88
2022-09-23T20:23:03.148Z,25.27
2022-09-23T20:26:06.081Z,27.52
2022-09-23T20:29:07.733Z,28.10
2022-09-23T20:32:10.164Z,28.27
2022-09-23T20:35:11.607Z,27.88
2022-09-23T20:38:13.001Z,29.95
2022-09-23T20:41:14.424Z,30.42
2022-09-23T20:44:15.881Z,28.48
2022-09-23T20:47:18.505Z,26.95
2022-09-23T20:50:19.932Z,25.63
2022-09-23T20:53:21.334Z,26.98
2022-09-23T20:56:23.423Z,23.70
2022-09-23T20:59:24.852Z,22.92
2022-09-23T21:02:26.325Z,22.50
2022-09-23T21:05:27.779Z,20.95
2022-09-23T21:08:30.553Z,19.33
2022-09-23T21:11:32.339Z,20.05
2022-09-23T21:14:33.784Z,19.88
2022-09-23T21:17:35.223Z,18.65
2022-09-23T21:20:36.632Z,18.63
2022-09-23T21:23:39.184Z,18.13
2022-09-23T21:26:40.608Z,20.40
2022-09-23T21:29:41.987Z,20.52
2022-09-23T21:32:43.373Z,20.67
2022-09-23T21:35:45.825Z,21.75
2022-09-23T21:38:47.246Z,21.83
2022-09-23T21:41:48.656Z,22.67
2022-09-23T21:44:50.076Z,23.45
2022-09-23T21:47:51.512Z,23.23
2022-09-23T21:51:14.924Z,24.52
2022-09-23T21:54:16.604Z,25.70
2022-09-23T21:57:18.005Z,25.45
2022-09-23T22:00:19.529Z,25.95
2022-09-23T22:03:20.916Z,27.27
2022-09-23T22:06:27.122Z,28.27
2022-09-23T22:09:28.686Z,27.10
2022-09-23T22:12:30.121Z,27.30
2022-09-23T22:15:31.580Z,27.27
2022-09-23T22:18:33.000Z,28.92
2022-09-23T22:21:38.817Z,29.50
2022-09-23T22:24:41.520Z,31.05
2022-09-23T22:27:42.921Z,31.60
2022-09-23T22:30:44.352Z,33.35
2022-09-23T22:33:49.747Z,34.13
2022-09-23T22:36:51.189Z,33.88
2022-09-23T22:39:53.137Z,33.75
2022-09-23T22:42:54.540Z,33.72
2022-09-23T22:45:55.970Z,32.25
2022-09-23T22:48:57.355Z,32.67
2022-09-23T22:51:59.356Z,32.50
2022-09-23T22:55:01.219Z,32.17
2022-09-23T22:58:21.249Z,31.08
2022-09-23T23:01:24.225Z,29.40
2022-09-23T23:04:25.721Z,28.23
2022-09-23T23:07:27.176Z,27.23
2022-09-23T23:10:28.591Z,25.77
2022-09-23T23:13:31.142Z,25.70
2022-09-23T23:16:32.626Z,23.95
2022-09-23T23:19:35.635Z,24.38
2022-09-23T23:22:37.052Z,23.13
2022-09-23T23:25:38.449Z,22.60
2022-09-23T23:28:41.235Z,21.98
2022-09-23T23:31:43.534Z,21.38
2022-09-23T23:34:45.014Z,20.88
2022-09-23T23:37:46.426Z,22.60
2022-09-23T23:40:47.873Z,22.00
2022-09-23T23:43:58.287Z,21.13
2022-09-23T23:46:59.782Z,21.67
2022-09-23T23:50:01.281Z,22.95
2022-09-23T23:53:02.863Z,23.05
2022-09-23T23:56:07.330Z,22.83
2022-09-23T23:59:08.743Z,22.13
